Terminal Aerodrome Forecast
Issued by NWS

Home | Current Version | Previous Version | Text Only | Print | Product List | Glossary On
Versions: 1 2 3 4 5 6 7 8 9 10 11 12 13 14 15 16 17 18 19 20
000
FTUS46 KLOX 011732
TAFOXR
TAF
KOXR 011732Z 0118/0218 12003KT P6SM SKC
     FM012100 26012KT P6SM SCT250
     FM020300 VRB03KT P6SM SCT015
     FM020900 VRB03KT P6SM BKN010=

USA.gov is the U.S. government's official web portal to all federal, state and local government web resources and services.